createdAt,value
2023-02-26T00:02:02.247Z,6.30
2023-02-26T00:06:19.940Z,4.18
2023-02-26T00:10:37.010Z,3.70
2023-02-26T00:14:54.402Z,5.97
2023-02-26T00:19:12.102Z,4.45
2023-02-26T00:23:29.357Z,5.10
2023-02-26T00:27:46.817Z,6.07
2023-02-26T00:32:04.561Z,5.40
2023-02-26T00:36:24.419Z,6.20
2023-02-26T00:40:48.025Z,8.55
2023-02-26T00:45:05.771Z,6.47
2023-02-26T00:49:50.751Z,6.07
2023-02-26T00:54:23.066Z,6.43
2023-02-26T00:58:40.217Z,8.18
2023-02-26T01:02:57.702Z,12.97
2023-02-26T01:07:15.443Z,9.82
2023-02-26T01:11:35.512Z,9.35
2023-02-26T01:16:02.681Z,12.50
2023-02-26T01:20:28.781Z,10.18
2023-02-26T01:24:50.585Z,10.27
2023-02-26T01:29:08.007Z,10.70
2023-02-26T01:33:35.140Z,12.73
2023-02-26T01:38:04.529Z,8.02
2023-02-26T01:42:30.203Z,9.82
2023-02-26T01:47:01.216Z,11.70
2023-02-26T01:51:39.387Z,8.15
2023-02-26T01:56:01.588Z,11.70
2023-02-26T02:00:18.974Z,9.00
2023-02-26T02:04:37.754Z,9.05
2023-02-26T02:08:55.143Z,11.70
2023-02-26T02:13:50.317Z,10.98
2023-02-26T02:18:28.187Z,10.85
2023-02-26T02:23:07.718Z,8.43
2023-02-26T02:27:40.539Z,9.32
2023-02-26T02:32:03.998Z,9.88
2023-02-26T02:36:53.214Z,13.23
2023-02-26T02:45:49.919Z,11.70
2023-02-26T02:50:32.840Z,9.30
2023-02-26T02:55:05.034Z,12.60
2023-02-26T02:59:35.378Z,12.20
2023-02-26T03:04:07.978Z,12.30
2023-02-26T03:08:30.028Z,12.57
2023-02-26T03:12:47.158Z,8.23
2023-02-26T03:17:04.300Z,12.07
2023-02-26T03:21:47.806Z,11.20
2023-02-26T03:26:28.461Z,8.57
2023-02-26T03:30:52.031Z,10.82
2023-02-26T03:35:12.134Z,8.85
2023-02-26T03:39:38.470Z,10.70
2023-02-26T03:44:13.719Z,8.07
2023-02-26T03:48:33.330Z,9.35
2023-02-26T03:52:52.261Z,9.27
2023-02-26T03:57:15.513Z,8.05
2023-02-26T04:01:45.507Z,7.78
2023-02-26T04:06:03.496Z,12.73
2023-02-26T04:14:42.077Z,4.95
2023-02-26T04:18:59.161Z,10.07
2023-02-26T04:23:16.382Z,9.13
2023-02-26T04:27:33.584Z,6.83
2023-02-26T04:31:50.921Z,8.17
2023-02-26T04:36:09.008Z,8.88
2023-02-26T04:44:43.191Z,5.80
2023-02-26T04:49:00.406Z,7.63
2023-02-26T04:53:17.573Z,6.13
2023-02-26T04:57:35.021Z,7.87
2023-02-26T05:01:52.208Z,7.68
2023-02-26T05:06:09.417Z,5.60
2023-02-26T05:10:26.716Z,8.20
2023-02-26T05:14:43.851Z,5.80
2023-02-26T05:19:00.944Z,6.93
2023-02-26T05:23:18.086Z,7.40
2023-02-26T05:27:35.213Z,10.90
2023-02-26T05:31:52.433Z,7.03
2023-02-26T05:36:10.472Z,9.07
2023-02-26T05:44:44.536Z,13.65
2023-02-26T05:49:01.630Z,11.73
2023-02-26T05:53:19.056Z,9.25
2023-02-26T05:57:36.285Z,8.85
2023-02-26T06:01:53.490Z,11.40
2023-02-26T06:06:12.580Z,12.60
2023-02-26T06:10:29.662Z,6.90
2023-02-26T06:14:46.796Z,7.72
2023-02-26T06:19:03.939Z,5.97
2023-02-26T06:23:21.105Z,6.80
2023-02-26T06:27:38.380Z,7.13
2023-02-26T06:31:55.624Z,9.90
2023-02-26T06:36:12.885Z,7.90
2023-02-26T06:40:30.646Z,9.63
2023-02-26T06:44:47.736Z,11.80
2023-02-26T06:49:05.545Z,12.57
2023-02-26T06:53:22.845Z,11.68
2023-02-26T06:57:40.119Z,12.73
2023-02-26T07:01:57.628Z,8.20
2023-02-26T07:06:26.793Z,8.38
2023-02-26T07:10:47.326Z,6.68
2023-02-26T07:15:06.819Z,9.27
2023-02-26T07:19:23.902Z,9.48
2023-02-26T07:23:40.978Z,10.13
2023-02-26T07:27:59.858Z,9.73
2023-02-26T07:32:20.073Z,14.57
2023-02-26T07:36:37.196Z,10.50
2023-02-26T07:40:57.599Z,11.60
2023-02-26T07:45:18.389Z,11.00
2023-02-26T07:49:35.624Z,5.90
2023-02-26T07:53:52.857Z,6.13
2023-02-26T07:58:09.924Z,6.75
2023-02-26T08:02:27.493Z,9.77
2023-02-26T08:06:44.590Z,10.93
2023-02-26T08:11:02.311Z,6.43
2023-02-26T08:15:19.511Z,8.73
2023-02-26T08:19:36.807Z,8.63
2023-02-26T08:23:54.180Z,7.83
2023-02-26T08:28:12.006Z,8.20
2023-02-26T08:32:29.465Z,9.40
2023-02-26T08:36:46.717Z,7.97
2023-02-26T08:41:04.117Z,10.10
2023-02-26T08:45:23.564Z,10.53
2023-02-26T08:49:40.704Z,7.38
2023-02-26T08:53:57.819Z,8.23
2023-02-26T08:58:15.071Z,9.38
2023-02-26T09:02:32.248Z,9.57
2023-02-26T09:06:49.434Z,9.52
2023-02-26T09:11:07.486Z,10.18
2023-02-26T09:15:24.817Z,6.20
2023-02-26T09:19:41.950Z,6.00
2023-02-26T09:23:59.093Z,7.05
2023-02-26T09:28:16.211Z,8.98
2023-02-26T09:32:33.639Z,7.55
2023-02-26T09:36:51.047Z,8.53
2023-02-26T09:41:19.546Z,7.60
2023-02-26T09:45:42.400Z,6.88
2023-02-26T09:50:23.970Z,6.68
2023-02-26T09:54:46.426Z,4.53
2023-02-26T09:59:03.668Z,4.35
2023-02-26T10:03:48.527Z,6.13
2023-02-26T10:08:14.330Z,9.38
2023-02-26T10:12:35.488Z,7.30
2023-02-26T10:16:58.211Z,6.00
2023-02-26T10:21:23.455Z,5.20
2023-02-26T10:25:53.885Z,10.68
2023-02-26T10:30:41.397Z,2.80
2023-02-26T10:35:10.025Z,5.85
2023-02-26T10:43:56.619Z,5.93
2023-02-26T10:48:25.890Z,4.03
2023-02-26T10:52:45.474Z,4.40
2023-02-26T10:57:04.030Z,6.60
2023-02-26T11:01:24.433Z,5.63
2023-02-26T11:05:41.958Z,6.13
2023-02-26T11:10:00.299Z,6.60
2023-02-26T11:14:17.558Z,5.53
2023-02-26T11:18:44.303Z,6.53
2023-02-26T11:23:03.904Z,6.80
2023-02-26T11:27:30.902Z,4.00
2023-02-26T11:31:52.467Z,7.05
2023-02-26T11:36:14.333Z,5.22
2023-02-26T11:40:39.423Z,7.53
2023-02-26T11:44:57.982Z,7.13
2023-02-26T11:49:17.807Z,6.32
2023-02-26T11:53:44.275Z,3.63
2023-02-26T11:58:01.337Z,4.88
2023-02-26T12:02:21.865Z,6.45
2023-02-26T12:06:39.341Z,5.55
2023-02-26T12:11:23.719Z,6.43
2023-02-26T12:16:03.900Z,5.47
2023-02-26T12:20:44.069Z,4.43
2023-02-26T12:25:26.504Z,3.70
2023-02-26T12:29:56.692Z,6.78
2023-02-26T12:34:44.408Z,5.45
2023-02-26T12:39:32.558Z,3.08
2023-02-26T12:43:52.177Z,6.75
2023-02-26T12:48:28.644Z,5.38
2023-02-26T12:53:05.527Z,3.50
2023-02-26T12:57:34.951Z,4.07
2023-02-26T13:02:13.653Z,4.38
2023-02-26T13:06:45.618Z,2.85
2023-02-26T13:11:47.324Z,4.60
2023-02-26T13:16:17.283Z,4.38
2023-02-26T13:20:37.227Z,7.82
2023-02-26T13:25:15.694Z,7.07
2023-02-26T13:29:40.149Z,5.65
2023-02-26T13:34:02.841Z,5.18
2023-02-26T13:38:52.696Z,5.93
2023-02-26T13:43:32.423Z,11.68
2023-02-26T13:48:25.270Z,5.78
2023-02-26T13:52:54.477Z,4.15
2023-02-26T13:57:52.850Z,3.30
2023-02-26T14:02:18.991Z,3.35
2023-02-26T14:06:43.866Z,4.15
2023-02-26T14:11:24.160Z,5.85
2023-02-26T14:16:01.798Z,5.15
2023-02-26T14:20:22.217Z,8.85
2023-02-26T14:24:45.842Z,3.05
2023-02-26T14:29:05.811Z,3.35
2023-02-26T14:33:30.610Z,5.93
2023-02-26T14:38:03.067Z,2.85
2023-02-26T14:42:24.174Z,4.55
2023-02-26T14:46:42.052Z,4.63
2023-02-26T14:51:29.581Z,4.93
2023-02-26T14:56:14.352Z,5.05
2023-02-26T15:00:34.429Z,5.50
2023-02-26T15:05:24.013Z,5.95
2023-02-26T15:09:57.057Z,5.57
2023-02-26T15:14:39.049Z,4.43
2023-02-26T15:19:17.147Z,5.32
2023-02-26T15:23:51.826Z,4.45
2023-02-26T15:28:37.843Z,5.50
2023-02-26T15:33:05.124Z,5.60
2023-02-26T15:37:26.225Z,6.53
2023-02-26T15:41:46.042Z,5.07
2023-02-26T15:46:03.890Z,6.40
2023-02-26T15:50:27.086Z,7.70
2023-02-26T15:54:48.796Z,3.42
2023-02-26T15:59:17.157Z,3.80
2023-02-26T16:03:37.381Z,2.25
2023-02-26T16:07:56.506Z,9.15
2023-02-26T16:12:19.580Z,5.20
2023-02-26T16:16:46.231Z,5.57
2023-02-26T16:21:08.893Z,16.40
2023-02-26T16:25:59.708Z,17.50
2023-02-26T16:30:22.636Z,11.02
2023-02-26T16:34:51.875Z,11.57
2023-02-26T16:39:25.485Z,7.85
2023-02-26T16:43:56.787Z,8.25
2023-02-26T16:48:31.440Z,11.45
2023-02-26T16:53:02.006Z,9.25
2023-02-26T16:57:26.229Z,12.02
2023-02-26T17:01:58.076Z,9.52
2023-02-26T17:06:18.880Z,10.35
2023-02-26T17:10:51.696Z,13.00
2023-02-26T17:15:32.089Z,15.70
2023-02-26T17:19:49.422Z,16.77
2023-02-26T17:24:07.065Z,17.77
2023-02-26T17:28:27.166Z,10.02
2023-02-26T17:32:44.658Z,10.27
2023-02-26T17:37:07.670Z,10.38
2023-02-26T17:41:25.565Z,10.50
2023-02-26T17:45:43.162Z,13.38
2023-02-26T17:50:00.486Z,13.82
2023-02-26T17:54:17.773Z,10.32
2023-02-26T17:58:35.222Z,10.43
2023-02-26T18:02:52.684Z,12.65
2023-02-26T18:07:16.317Z,12.65
2023-02-26T18:11:33.992Z,14.93
2023-02-26T18:15:52.266Z,10.70
2023-02-26T18:20:20.265Z,19.27
2023-02-26T18:24:37.538Z,14.25
2023-02-26T18:28:55.665Z,12.20
2023-02-26T18:33:16.847Z,18.95
2023-02-26T18:37:34.794Z,28.65
2023-02-26T18:41:52.091Z,27.45
2023-02-26T18:46:11.842Z,23.73
2023-02-26T18:50:29.265Z,23.10
2023-02-26T18:54:46.552Z,27.48
2023-02-26T18:59:04.436Z,30.42
2023-02-26T19:07:39.410Z,22.95
2023-02-26T19:11:57.758Z,21.73
2023-02-26T19:16:16.119Z,24.80
2023-02-26T19:20:33.389Z,23.13
2023-02-26T19:24:50.791Z,17.10
2023-02-26T19:29:09.737Z,24.10
2023-02-26T19:33:27.005Z,18.70
2023-02-26T19:37:44.274Z,16.00
2023-02-26T19:42:01.590Z,21.50
2023-02-26T19:46:18.989Z,27.70
2023-02-26T19:50:36.594Z,17.90
2023-02-26T19:54:53.872Z,17.92
2023-02-26T19:59:12.325Z,15.88
2023-02-26T20:03:30.260Z,19.58
2023-02-26T20:07:48.183Z,21.40
2023-02-26T20:16:22.826Z,19.23
2023-02-26T20:20:41.406Z,16.27
2023-02-26T20:24:58.678Z,14.88
2023-02-26T20:29:18.448Z,15.10
2023-02-26T20:33:37.454Z,16.48
2023-02-26T20:37:54.812Z,19.13
2023-02-26T20:42:12.268Z,19.70
2023-02-26T20:46:30.737Z,18.98
2023-02-26T20:50:48.594Z,18.25
2023-02-26T20:55:06.424Z,21.25
2023-02-26T20:59:23.745Z,19.27
2023-02-26T21:03:41.120Z,16.80
2023-02-26T21:07:58.732Z,18.80
2023-02-26T21:12:16.773Z,19.25
2023-02-26T21:20:51.655Z,14.10
2023-02-26T21:25:09.286Z,16.77
2023-02-26T21:29:26.490Z,12.85
2023-02-26T21:33:44.196Z,14.95
2023-02-26T21:38:01.296Z,15.40
2023-02-26T21:42:18.403Z,10.87
2023-02-26T21:46:35.586Z,15.37
2023-02-26T21:50:53.641Z,11.48
2023-02-26T21:55:11.497Z,11.48
2023-02-26T21:59:28.704Z,6.80
2023-02-26T22:03:45.836Z,13.80
2023-02-26T22:08:02.998Z,13.35
2023-02-26T22:12:20.495Z,12.63
2023-02-26T22:16:37.676Z,7.90
2023-02-26T22:20:54.846Z,12.25
2023-02-26T22:25:12.804Z,8.82
2023-02-26T22:29:30.117Z,12.13
2023-02-26T22:33:47.314Z,9.00
2023-02-26T22:38:04.402Z,12.10
2023-02-26T22:42:21.456Z,10.43
2023-02-26T22:46:38.729Z,6.50
2023-02-26T22:50:55.950Z,8.43
2023-02-26T22:55:13.490Z,8.80
2023-02-26T23:03:47.494Z,12.98
2023-02-26T23:08:04.600Z,10.77
2023-02-26T23:12:21.686Z,13.68
2023-02-26T23:16:38.922Z,8.73
2023-02-26T23:20:56.089Z,9.07
2023-02-26T23:25:13.392Z,8.68
2023-02-26T23:29:30.476Z,13.05
2023-02-26T23:33:47.596Z,10.63
2023-02-26T23:38:05.956Z,15.20
2023-02-26T23:42:23.080Z,10.40
2023-02-26T23:46:40.194Z,8.18
2023-02-26T23:50:57.432Z,8.85
2023-02-26T23:55:14.724Z,8.02
2023-02-26T23:59:31.925Z,6.85
